Time;durP1;ratioP1;P1;durP2;ratioP2;P2;SDS_P1;SDS_P2;PMS_P1;PMS_P2;Temp;Humidity;BMP_temperature;BMP_pressure;BME280_temperature;BME280_humidity;BME280_pressure;Samples;Min_cycle;Max_cycle;Signal;HPM_P1;HPM_P2
2021/11/29 00:00:24;;;;;;;10.50;6.93;;;231.00;2252.80;;;;;;5050731;28;20017;-75
2021/11/29 00:02:55;;;;;;;11.68;7.30;;;231.00;2252.80;;;;;;5049479;28;20021;-75
2021/11/29 00:05:22;;;;;;;13.85;7.95;;;231.00;2252.80;;;;;;5036137;28;20036;-76
2021/11/29 00:07:48;;;;;;;10.50;7.90;;;231.00;2252.80;;;;;;5031607;28;20037;-75
2021/11/29 00:10:14;;;;;;;14.27;8.35;;;230.90;2252.80;;;;;;5040769;28;20027;-75
2021/11/29 00:12:40;;;;;;;13.32;8.52;;;230.90;2252.80;;;;;;5053887;28;20067;-75
2021/11/29 00:15:08;;;;;;;12.02;8.25;;;230.90;2252.80;;;;;;5035982;28;20028;-76
2021/11/29 00:17:34;;;;;;;11.75;6.50;;;230.80;2252.80;;;;;;5052218;28;20052;-76
2021/11/29 00:20:00;;;;;;;10.40;8.35;;;230.70;2252.80;;;;;;5035836;28;20935;-76
2021/11/29 00:22:26;;;;;;;9.27;6.05;;;230.80;2252.80;;;;;;5054009;28;20051;-75
2021/11/29 00:24:52;;;;;;;9.25;7.03;;;230.70;2252.80;;;;;;5035435;28;20446;-75
2021/11/29 00:27:18;;;;;;;11.23;7.25;;;230.70;2252.80;;;;;;5049469;28;20461;-76
2021/11/29 00:29:44;;;;;;;8.32;5.97;;;230.70;2252.80;;;;;;5053981;28;20423;-76
2021/11/29 00:32:11;;;;;;;8.68;5.63;;;230.60;2252.80;;;;;;5036116;28;20021;-76
2021/11/29 00:34:38;;;;;;;11.50;6.28;;;230.70;2252.80;;;;;;5035351;28;20418;-76
2021/11/29 00:37:04;;;;;;;14.02;7.93;;;230.70;2252.80;;;;;;5018405;28;20392;-76
2021/11/29 00:39:30;;;;;;;8.98;5.80;;;230.60;2252.80;;;;;;5019297;28;20151;-76
2021/11/29 00:41:56;;;;;;;10.18;6.65;;;230.50;2252.80;;;;;;5035513;28;20476;-76
2021/11/29 00:44:22;;;;;;;12.70;6.22;;;230.50;2252.80;;;;;;5044393;28;20033;-76
2021/11/29 00:46:48;;;;;;;9.52;6.22;;;230.60;2252.80;;;;;;5035422;28;20472;-76
2021/11/29 00:49:14;;;;;;;10.50;6.20;;;230.70;2252.80;;;;;;5046748;28;20111;-76
2021/11/29 00:51:40;;;;;;;10.43;6.82;;;230.80;2252.80;;;;;;5035447;28;20060;-75
2021/11/29 00:54:06;;;;;;;9.02;6.63;;;230.60;2252.80;;;;;;5035809;28;20029;-76
2021/11/29 00:56:32;;;;;;;12.98;7.63;;;230.60;2252.80;;;;;;5053226;28;20048;-76
2021/11/29 00:58:58;;;;;;;26.05;14.55;;;230.50;2252.80;;;;;;5053421;28;20063;-76
2021/11/29 01:01:23;;;;;;;23.48;12.82;;;230.50;2252.80;;;;;;5052815;28;20029;-76
2021/11/29 01:03:49;;;;;;;18.63;10.43;;;230.50;2252.80;;;;;;5035225;28;20021;-74
2021/11/29 01:06:15;;;;;;;20.35;9.60;;;230.40;2252.80;;;;;;5035545;28;20036;-75
2021/11/29 01:08:41;;;;;;;32.55;16.73;;;230.40;2252.80;;;;;;5052393;28;20033;-75
2021/11/29 01:11:10;;;;;;;19.05;10.98;;;230.40;2252.80;;;;;;5053307;28;20036;-75
2021/11/29 01:13:36;;;;;;;15.30;7.55;;;205.70;2252.80;;;;;;5052364;28;20033;-75
2021/11/29 01:16:03;;;;;;;22.08;12.25;;;230.40;2252.80;;;;;;5036917;28;20087;-75
2021/11/29 01:18:29;;;;;;;15.98;9.68;;;230.40;2252.80;;;;;;5052904;28;20025;-75
2021/11/29 01:20:55;;;;;;;13.27;7.88;;;230.40;2252.80;;;;;;5034903;28;20035;-75
2021/11/29 01:23:21;;;;;;;8.07;6.55;;;230.40;2252.80;;;;;;5034876;28;20028;-75
2021/11/29 01:25:48;;;;;;;15.05;8.45;;;230.40;2252.80;;;;;;5035128;28;20063;-76
2021/11/29 01:28:14;;;;;;;14.20;10.45;;;230.40;2252.80;;;;;;5034571;28;20024;-75
2021/11/29 01:30:41;;;;;;;11.68;7.85;;;205.70;2252.80;;;;;;5052315;28;20025;-76
2021/11/29 01:33:07;;;;;;;12.45;7.70;;;205.70;2252.80;;;;;;5048423;28;20033;-75
2021/11/29 01:35:33;;;;;;;10.95;7.28;;;230.40;2252.80;;;;;;5049447;28;20396;-75
2021/11/29 01:37:59;;;;;;;16.77;8.38;;;205.70;2252.80;;;;;;5052771;28;20032;-75
2021/11/29 01:40:26;;;;;;;13.05;8.63;;;230.40;2252.80;;;;;;5052047;28;20025;-75
2021/11/29 01:42:58;;;;;;;11.75;7.32;;;205.70;2252.80;;;;;;5052810;28;20028;-75
2021/11/29 01:45:24;;;;;;;8.52;5.97;;;205.60;2252.80;;;;;;5051915;28;20021;-76
2021/11/29 01:47:49;;;;;;;8.65;5.88;;;205.60;2252.80;;;;;;5034772;28;20021;-76
2021/11/29 01:50:15;;;;;;;7.68;5.15;;;205.50;2252.80;;;;;;5034122;28;20053;-75
2021/11/29 01:52:41;;;;;;;8.05;5.10;;;205.50;2252.80;;;;;;5052195;28;20037;-75
2021/11/29 01:55:07;;;;;;;9.07;5.70;;;205.40;2252.80;;;;;;5034614;28;20032;-75
2021/11/29 01:57:33;;;;;;;12.68;6.75;;;205.50;2252.80;;;;;;5033851;28;20388;-75
2021/11/29 02:00:00;;;;;;;9.18;6.65;;;205.40;2252.80;;;;;;5034574;28;20082;-75
2021/11/29 02:02:28;;;;;;;7.43;5.30;;;205.50;2252.80;;;;;;5032474;28;20035;-75
2021/11/29 02:04:59;;;;;;;8.13;5.57;;;205.50;2252.80;;;;;;5014695;28;20558;-75
2021/11/29 02:07:25;;;;;;;10.00;7.75;;;205.50;2252.80;;;;;;5032047;28;20029;-75
2021/11/29 02:09:51;;;;;;;8.38;5.60;;;205.40;2252.80;;;;;;5029799;28;20032;-76
2021/11/29 02:12:21;;;;;;;10.10;6.43;;;205.40;2252.80;;;;;;5051878;28;20017;-75
2021/11/29 02:14:48;;;;;;;8.45;6.43;;;205.40;2252.80;;;;;;5033712;28;20391;-75
2021/11/29 02:17:15;;;;;;;9.15;6.22;;;205.40;2252.80;;;;;;5050837;28;20025;-75
2021/11/29 02:19:44;;;;;;;8.50;5.90;;;205.40;2252.80;;;;;;5033508;28;20040;-76
2021/11/29 02:22:10;;;;;;;9.88;6.60;;;205.40;2252.80;;;;;;5049197;28;20055;-75
2021/11/29 02:24:37;;;;;;;7.72;5.68;;;205.40;2252.80;;;;;;5051472;28;20123;-75
2021/11/29 02:27:04;;;;;;;8.82;6.38;;;205.40;2252.80;;;;;;5037074;28;20120;-75
2021/11/29 02:29:30;;;;;;;17.77;8.60;;;205.30;2252.80;;;;;;5051764;28;20053;-75
2021/11/29 02:31:56;;;;;;;11.75;8.20;;;205.30;2252.80;;;;;;5051807;28;20036;-75
2021/11/29 02:34:25;;;;;;;14.90;7.85;;;205.30;2252.80;;;;;;5033511;28;20036;-75
2021/11/29 02:36:54;;;;;;;10.68;7.00;;;205.30;2252.80;;;;;;5050177;28;20021;-75
2021/11/29 02:39:20;;;;;;;10.63;6.18;;;205.30;2252.80;;;;;;5050839;28;20017;-75
2021/11/29 02:41:48;;;;;;;10.27;7.80;;;205.30;2252.80;;;;;;5032836;28;20032;-75
2021/11/29 02:44:15;;;;;;;6.68;4.90;;;205.30;2252.80;;;;;;5033194;28;20025;-75
2021/11/29 02:46:42;;;;;;;7.70;5.22;;;205.30;2252.80;;;;;;5049202;28;20013;-75
2021/11/29 02:49:09;;;;;;;7.32;4.07;;;205.30;2252.80;;;;;;5036312;28;20033;-75
2021/11/29 02:51:39;;;;;;;9.65;4.70;;;205.30;2252.80;;;;;;5032804;28;20492;-75
2021/11/29 02:54:07;;;;;;;7.60;4.57;;;205.20;2252.80;;;;;;5046213;28;20113;-75
2021/11/29 02:56:38;;;;;;;9.77;5.05;;;205.30;2252.80;;;;;;5033088;28;20021;-75
2021/11/29 02:59:08;;;;;;;10.65;6.85;;;205.30;2252.80;;;;;;5050135;28;20044;-75
2021/11/29 03:01:35;;;;;;;7.57;5.38;;;205.30;2252.80;;;;;;5046331;28;20014;-75
2021/11/29 03:04:01;;;;;;;9.10;6.35;;;205.30;2252.80;;;;;;5025481;28;20041;-75
2021/11/29 03:06:26;;;;;;;12.07;8.02;;;205.30;2252.80;;;;;;5020752;28;20029;-75
2021/11/29 03:08:52;;;;;;;17.67;8.52;;;205.30;2252.80;;;;;;5026430;28;20064;-75
2021/11/29 03:11:18;;;;;;;16.15;10.82;;;205.30;2252.80;;;;;;5013536;28;20038;-75
2021/11/29 03:13:44;;;;;;;16.13;9.38;;;205.20;2252.80;;;;;;5032239;28;20063;-75
2021/11/29 03:16:11;;;;;;;15.07;9.65;;;205.10;2252.80;;;;;;5032891;28;20025;-75
2021/11/29 03:18:40;;;;;;;24.08;13.00;;;205.10;2252.80;;;;;;5050220;28;20029;-75
2021/11/29 03:21:07;;;;;;;14.48;11.00;;;205.00;2252.80;;;;;;5050794;28;20033;-75
2021/11/29 03:23:34;;;;;;;15.20;11.18;;;205.00;2252.80;;;;;;5033751;28;20025;-74
2021/11/29 03:26:00;;;;;;;13.05;8.27;;;205.00;2252.80;;;;;;5045525;28;20021;-74
2021/11/29 03:28:26;;;;;;;11.57;8.65;;;205.00;2252.80;;;;;;5031623;28;20039;-74
2021/11/29 03:30:53;;;;;;;14.02;9.20;;;204.90;2252.80;;;;;;5030959;28;20087;-74
2021/11/29 03:33:19;;;;;;;19.52;12.63;;;205.00;2252.80;;;;;;5031442;28;20032;-75
2021/11/29 03:35:45;;;;;;;14.63;10.18;;;205.00;2252.80;;;;;;5030857;28;20389;-74
2021/11/29 03:38:11;;;;;;;35.08;22.48;;;205.00;2252.80;;;;;;5016801;28;20469;-75
2021/11/29 03:40:38;;;;;;;25.60;16.92;;;205.00;2252.80;;;;;;5017474;28;20030;-75
2021/11/29 03:43:05;;;;;;;13.38;8.95;;;205.00;2252.80;;;;;;5051537;28;20028;-74
2021/11/29 03:45:32;;;;;;;10.20;7.30;;;204.90;2252.80;;;;;;5039463;28;20360;-75
2021/11/29 03:47:57;;;;;;;9.57;7.10;;;204.90;2252.80;;;;;;5040346;28;20090;-75
2021/11/29 03:50:23;;;;;;;10.10;7.40;;;205.00;2252.80;;;;;;5035934;28;20048;-75
2021/11/29 03:52:49;;;;;;;10.93;7.63;;;205.00;2252.80;;;;;;5034813;28;20037;-75
2021/11/29 03:55:15;;;;;;;9.82;6.47;;;205.00;2252.80;;;;;;5035040;28;20488;-75
2021/11/29 03:57:41;;;;;;;14.57;10.63;;;205.00;2252.80;;;;;;5037766;28;20091;-75
2021/11/29 04:00:08;;;;;;;12.60;8.55;;;205.10;2252.80;;;;;;5040307;28;20469;-74
2021/11/29 04:02:34;;;;;;;16.92;12.15;;;205.20;2252.80;;;;;;5030150;28;20078;-75
2021/11/29 04:04:59;;;;;;;10.98;7.22;;;205.20;2252.80;;;;;;5036316;28;20120;-75
2021/11/29 04:07:25;;;;;;;11.50;9.35;;;205.20;2252.80;;;;;;5053413;28;20029;-75
2021/11/29 04:09:51;;;;;;;13.18;8.48;;;205.30;2252.80;;;;;;5049462;28;20021;-74
2021/11/29 04:12:17;;;;;;;14.18;7.82;;;205.30;2252.80;;;;;;5036509;28;20033;-75
2021/11/29 04:14:42;;;;;;;18.10;9.15;;;205.40;2252.80;;;;;;5053982;28;20407;-74
2021/11/29 04:17:08;;;;;;;17.42;11.48;;;205.50;2252.80;;;;;;5054118;28;20036;-75
2021/11/29 04:19:38;;;;;;;20.58;9.68;;;205.50;2252.80;;;;;;5035788;28;20057;-76
2021/11/29 04:22:04;;;;;;;12.73;7.32;;;205.50;2252.80;;;;;;5054190;28;20029;-75
2021/11/29 04:24:30;;;;;;;12.48;8.75;;;205.50;2252.80;;;;;;5022908;28;20045;-76
2021/11/29 04:27:01;;;;;;;9.98;7.25;;;205.50;2252.80;;;;;;5034282;28;20025;-75
2021/11/29 04:29:29;;;;;;;12.85;6.65;;;205.40;2252.80;;;;;;5040796;28;20033;-76
2021/11/29 04:31:55;;;;;;;10.10;5.45;;;205.40;2252.80;;;;;;5053263;28;20029;-76
2021/11/29 04:34:21;;;;;;;11.52;6.78;;;205.30;2252.80;;;;;;5069379;28;20361;-75
2021/11/29 04:36:47;;;;;;;9.18;6.05;;;205.30;2252.80;;;;;;5069048;28;20460;-75
2021/11/29 04:39:13;;;;;;;8.55;6.40;;;205.30;2252.80;;;;;;5069334;28;20028;-75
2021/11/29 04:41:38;;;;;;;9.52;6.68;;;205.30;2252.80;;;;;;5053505;28;20025;-75
2021/11/29 04:44:06;;;;;;;8.48;5.93;;;205.20;2252.80;;;;;;5042367;28;20024;-75
2021/11/29 04:46:33;;;;;;;7.53;5.68;;;205.20;2252.80;;;;;;5026912;28;20125;-75
2021/11/29 04:48:58;;;;;;;8.50;7.00;;;205.20;2252.80;;;;;;5034601;28;20052;-75
2021/11/29 04:51:24;;;;;;;15.05;9.57;;;205.20;2252.80;;;;;;5035096;28;20049;-75
2021/11/29 04:53:51;;;;;;;9.90;7.45;;;205.20;2252.80;;;;;;5053435;28;20816;-76
2021/11/29 04:56:17;;;;;;;11.63;7.38;;;205.20;2252.80;;;;;;5035644;28;20509;-75
2021/11/29 04:58:43;;;;;;;16.10;11.73;;;205.20;2252.80;;;;;;5034578;28;20108;-75
2021/11/29 05:01:09;;;;;;;12.55;7.95;;;205.10;2252.80;;;;;;5043103;28;20116;-76
2021/11/29 05:03:34;;;;;;;12.27;9.02;;;205.10;2252.80;;;;;;5018801;28;20029;-76
2021/11/29 05:06:00;;;;;;;14.18;9.60;;;205.10;2252.80;;;;;;5024988;28;20027;-76
2021/11/29 05:08:26;;;;;;;14.75;10.38;;;205.10;2252.80;;;;;;5053011;28;20025;-76
2021/11/29 05:10:52;;;;;;;19.50;12.77;;;205.10;2252.80;;;;;;5052054;28;20110;-75
2021/11/29 05:13:18;;;;;;;24.52;16.58;;;205.10;2252.80;;;;;;5033641;28;20032;-76
2021/11/29 05:15:44;;;;;;;26.02;18.35;;;205.10;2252.80;;;;;;5015528;28;20053;-75
2021/11/29 05:18:10;;;;;;;28.25;18.67;;;205.10;2252.80;;;;;;5015308;28;20114;-75
2021/11/29 05:20:36;;;;;;;21.95;15.35;;;205.20;2252.80;;;;;;5029236;28;20396;-76
2021/11/29 05:23:02;;;;;;;15.13;10.07;;;205.20;2252.80;;;;;;5045838;28;20036;-76
2021/11/29 05:25:28;;;;;;;14.32;10.00;;;205.10;2252.80;;;;;;5032960;28;20037;-76
2021/11/29 05:27:54;;;;;;;12.40;9.10;;;205.20;2252.80;;;;;;5032994;28;20025;-76
2021/11/29 05:30:20;;;;;;;11.98;9.18;;;205.20;2252.80;;;;;;5038737;28;20100;-76
2021/11/29 05:32:46;;;;;;;15.10;9.70;;;205.30;2252.80;;;;;;5051959;28;20032;-75
2021/11/29 05:35:12;;;;;;;12.02;9.57;;;205.30;2252.80;;;;;;5051672;28;20025;-76
2021/11/29 05:37:38;;;;;;;12.88;9.45;;;205.30;2252.80;;;;;;5052004;28;20031;-76
2021/11/29 05:40:05;;;;;;;13.90;10.38;;;205.30;2252.80;;;;;;5034784;28;20021;-76
2021/11/29 05:42:31;;;;;;;14.65;10.02;;;205.20;2252.80;;;;;;5052220;28;20021;-76
2021/11/29 05:44:57;;;;;;;10.82;8.52;;;205.20;2252.80;;;;;;5052323;28;20025;-76
2021/11/29 05:47:22;;;;;;;14.60;10.20;;;205.20;2252.80;;;;;;5026706;28;20116;-75
2021/11/29 05:49:48;;;;;;;14.13;11.23;;;205.20;2252.80;;;;;;5052323;28;20048;-77
2021/11/29 05:52:14;;;;;;;15.75;12.05;;;205.10;2252.80;;;;;;5033897;28;20479;-75
2021/11/29 05:54:40;;;;;;;14.73;11.07;;;205.00;2252.80;;;;;;5034276;28;20495;-75
2021/11/29 05:57:07;;;;;;;17.55;12.07;;;204.90;2252.80;;;;;;5031422;28;20025;-75
2021/11/29 05:59:33;;;;;;;21.30;13.20;;;180.10;2252.80;;;;;;5047194;28;20025;-75
2021/11/29 06:01:59;;;;;;;26.63;17.05;;;180.00;2252.80;;;;;;5044544;28;20060;-74
2021/11/29 06:04:25;;;;;;;21.50;16.02;;;180.00;2252.80;;;;;;5031454;28;20102;-75
2021/11/29 06:06:50;;;;;;;19.50;14.45;;;179.90;2252.80;;;;;;5051170;28;20067;-75
2021/11/29 06:09:17;;;;;;;21.48;15.57;;;179.90;2252.80;;;;;;5052447;28;20079;-75
2021/11/29 06:11:43;;;;;;;22.98;15.32;;;179.90;2252.80;;;;;;5051751;28;20025;-75
2021/11/29 06:14:09;;;;;;;20.15;13.32;;;179.90;2252.80;;;;;;5051730;28;20122;-75
2021/11/29 06:16:35;;;;;;;22.67;13.73;;;179.80;2252.80;;;;;;5051704;28;20029;-75
2021/11/29 06:19:01;;;;;;;22.33;15.32;;;179.80;2252.80;;;;;;5051390;28;20065;-75
2021/11/29 06:21:27;;;;;;;24.23;16.90;;;179.80;2252.80;;;;;;5034071;28;20028;-75
2021/11/29 06:23:53;;;;;;;30.05;18.95;;;179.70;2252.80;;;;;;5033804;28;20025;-75
2021/11/29 06:26:20;;;;;;;30.15;19.98;;;179.70;2252.80;;;;;;5033390;28;20389;-74
2021/11/29 06:28:46;;;;;;;29.08;19.75;;;179.70;2252.80;;;;;;5020436;28;20092;-75
2021/11/29 06:31:12;;;;;;;27.92;19.40;;;179.70;2252.80;;;;;;5019856;28;20488;-75
2021/11/29 06:33:38;;;;;;;24.88;16.88;;;179.70;2252.80;;;;;;5051650;28;20104;-74
2021/11/29 06:36:06;;;;;;;26.52;17.92;;;179.70;2252.80;;;;;;5051366;28;20059;-75
2021/11/29 06:38:32;;;;;;;22.30;15.77;;;179.80;2252.80;;;;;;5033102;28;20025;-75
2021/11/29 06:40:58;;;;;;;20.20;13.82;;;179.90;2252.80;;;;;;5051636;28;20020;-75
2021/11/29 06:43:25;;;;;;;21.50;12.43;;;179.90;2252.80;;;;;;5034046;28;20647;-75
2021/11/29 06:45:52;;;;;;;18.77;12.57;;;179.90;2252.80;;;;;;5046002;28;20700;-75
2021/11/29 06:48:18;;;;;;;36.22;20.70;;;179.90;2252.80;;;;;;5050542;28;20033;-75
2021/11/29 06:50:45;;;;;;;32.25;19.23;;;180.00;2252.80;;;;;;5051182;28;20127;-75
2021/11/29 06:53:11;;;;;;;36.17;20.50;;;180.10;2252.80;;;;;;5051272;28;20033;-74
2021/11/29 06:55:37;;;;;;;30.75;17.05;;;180.10;2252.80;;;;;;5051610;28;20504;-75
2021/11/29 06:58:03;;;;;;;32.50;20.58;;;204.90;2252.80;;;;;;5050380;28;20028;-75
2021/11/29 07:00:31;;;;;;;39.85;20.75;;;205.10;2252.80;;;;;;5048400;28;20357;-75
2021/11/29 07:02:57;;;;;;;34.35;19.27;;;205.00;2252.80;;;;;;5047985;28;20021;-75
2021/11/29 07:05:28;;;;;;;28.00;14.73;;;205.10;2252.80;;;;;;5047816;28;20120;-75
2021/11/29 07:07:55;;;;;;;27.98;16.45;;;205.10;2252.80;;;;;;5032077;28;20742;-75
2021/11/29 07:10:24;;;;;;;29.17;17.30;;;205.00;2252.80;;;;;;5046946;28;20032;-75
2021/11/29 07:12:52;;;;;;;22.88;12.13;;;205.00;2252.80;;;;;;5035873;28;20020;-75
2021/11/29 07:15:19;;;;;;;16.55;12.80;;;205.00;2252.80;;;;;;5037331;28;20029;-75
2021/11/29 07:17:45;;;;;;;19.55;13.48;;;204.90;2252.80;;;;;;5036388;28;20116;-75
2021/11/29 07:20:11;;;;;;;18.48;12.82;;;204.90;2252.80;;;;;;5036724;28;20112;-75
2021/11/29 07:22:37;;;;;;;16.75;11.45;;;204.90;2252.80;;;;;;5051080;28;20503;-75
2021/11/29 07:25:04;;;;;;;18.70;13.18;;;180.10;2252.80;;;;;;5036802;28;20759;-76
2021/11/29 07:27:32;;;;;;;21.45;15.35;;;180.10;2252.80;;;;;;5055018;28;20033;-75
2021/11/29 07:29:59;;;;;;;18.50;11.48;;;180.00;2252.80;;;;;;5031720;28;20143;-75
2021/11/29 07:32:25;;;;;;;17.65;12.80;;;180.00;2252.80;;;;;;5055010;28;20029;-75
2021/11/29 07:34:51;;;;;;;20.73;14.07;;;180.10;2252.80;;;;;;5036260;28;20071;-75
2021/11/29 07:37:19;;;;;;;20.00;11.60;;;204.80;2252.80;;;;;;5033963;28;20037;-75
2021/11/29 07:39:46;;;;;;;16.60;11.48;;;204.80;2252.80;;;;;;5053100;28;20025;-75
2021/11/29 07:42:12;;;;;;;16.95;11.60;;;204.90;2252.80;;;;;;5054504;28;20029;-75
2021/11/29 07:44:38;;;;;;;15.15;10.68;;;205.10;2252.80;;;;;;5036371;28;20025;-75
2021/11/29 07:47:04;;;;;;;15.88;10.95;;;205.20;2252.80;;;;;;5054189;28;20028;-75
2021/11/29 07:49:30;;;;;;;15.75;10.77;;;205.30;2252.80;;;;;;5036684;28;20032;-75
2021/11/29 07:51:55;;;;;;;16.80;11.25;;;205.50;2252.80;;;;;;5047197;28;20057;-76
2021/11/29 07:54:21;;;;;;;14.82;10.82;;;205.60;2252.80;;;;;;5056650;28;20052;-75
2021/11/29 07:56:47;;;;;;;18.08;12.98;;;205.60;2252.80;;;;;;5044591;28;20071;-75
2021/11/29 07:59:13;;;;;;;13.63;10.23;;;205.60;2252.80;;;;;;5019968;28;20025;-75
2021/11/29 08:01:39;;;;;;;15.27;12.32;;;205.60;2252.80;;;;;;5036030;28;20056;-75
2021/11/29 08:04:05;;;;;;;14.20;11.52;;;205.60;2252.80;;;;;;5059678;28;20021;-75
2021/11/29 08:06:31;;;;;;;17.33;12.25;;;205.50;2252.80;;;;;;5058594;28;20033;-75
2021/11/29 08:08:57;;;;;;;17.55;14.45;;;205.40;2252.80;;;;;;5046532;28;20028;-75
2021/11/29 08:11:23;;;;;;;20.67;13.98;;;205.50;2252.80;;;;;;5069945;28;20024;-75
2021/11/29 08:13:49;;;;;;;19.27;12.95;;;205.50;2252.80;;;;;;5039336;28;20056;-76
2021/11/29 08:16:15;;;;;;;20.48;14.63;;;205.40;2252.80;;;;;;5059911;28;20028;-76
2021/11/29 08:18:41;;;;;;;20.83;16.20;;;205.50;2252.80;;;;;;5058273;28;20033;-76
2021/11/29 08:21:29;;;;;;;21.42;15.27;;;205.60;2252.80;;;;;;5060346;28;20025;-76
2021/11/29 08:23:54;;;;;;;20.77;14.00;;;230.40;2252.80;;;;;;5034868;28;20391;-76
2021/11/29 08:26:20;;;;;;;25.67;17.45;;;205.70;2252.80;;;;;;5051188;28;20472;-76
2021/11/29 08:28:46;;;;;;;24.08;18.38;;;205.60;2252.80;;;;;;5054824;28;20640;-76
2021/11/29 08:31:12;;;;;;;22.85;16.90;;;205.60;2252.80;;;;;;5055189;28;20025;-76
2021/11/29 08:33:38;;;;;;;25.65;16.85;;;205.60;2252.80;;;;;;5048443;28;20549;-76
2021/11/29 08:36:04;;;;;;;26.08;17.42;;;205.60;2252.80;;;;;;5030286;28;20079;-76
2021/11/29 08:38:29;;;;;;;25.05;17.02;;;230.40;2252.80;;;;;;5043895;28;20017;-76
2021/11/29 08:40:55;;;;;;;23.27;16.70;;;230.50;2252.80;;;;;;5030344;28;20029;-76
2021/11/29 08:43:21;;;;;;;26.65;15.95;;;230.50;2252.80;;;;;;5032462;28;20740;-76
2021/11/29 08:45:50;;;;;;;19.77;14.80;;;230.50;2252.80;;;;;;5039217;28;20056;-76
2021/11/29 08:48:18;;;;;;;22.63;15.07;;;230.50;2252.80;;;;;;5029914;28;20035;-76
2021/11/29 08:53:32;;;;;;;19.85;14.13;;;205.70;2252.80;;;;;;5047262;28;20116;-76
2021/11/29 08:55:58;;;;;;;23.50;14.60;;;205.70;2252.80;;;;;;5028751;28;20117;-76
2021/11/29 08:58:24;;;;;;;17.23;12.93;;;205.70;2252.80;;;;;;5033226;28;20114;-76
2021/11/29 09:00:53;;;;;;;17.35;12.38;;;205.60;2252.80;;;;;;5051533;28;20021;-76
2021/11/29 09:03:19;;;;;;;21.83;14.45;;;205.50;2252.80;;;;;;5051698;28;20032;-76
2021/11/29 09:05:46;;;;;;;22.42;13.57;;;205.50;2252.80;;;;;;5051173;28;20021;-76
2021/11/29 09:08:13;;;;;;;17.80;12.15;;;205.60;2252.80;;;;;;5048110;28;20097;-76
2021/11/29 09:10:40;;;;;;;18.70;11.70;;;230.40;2252.80;;;;;;5045289;28;20028;-76
2021/11/29 09:13:06;;;;;;;16.35;12.05;;;205.60;2252.80;;;;;;5031126;28;20455;-76
2021/11/29 09:15:32;;;;;;;16.33;10.75;;;205.60;2252.80;;;;;;5028380;28;20055;-76
2021/11/29 09:17:58;;;;;;;18.65;13.65;;;205.60;2252.80;;;;;;5048516;28;20060;-76
2021/11/29 09:20:31;;;;;;;25.00;14.05;;;230.50;2252.80;;;;;;5029545;28;20550;-76
2021/11/29 09:23:05;;;;;;;20.48;14.77;;;230.60;2252.80;;;;;;5046544;28;20050;-76
2021/11/29 09:25:31;;;;;;;16.70;11.77;;;230.70;2252.80;;;;;;5032794;28;20082;-76
2021/11/29 09:27:57;;;;;;;22.63;14.50;;;230.80;2252.80;;;;;;5031727;28;20021;-76
2021/11/29 09:30:23;;;;;;;26.83;13.50;;;230.70;2252.80;;;;;;5045484;28;20041;-77
2021/11/29 09:32:49;;;;;;;21.05;14.50;;;230.70;2252.80;;;;;;5034835;28;20041;-76
2021/11/29 09:35:18;;;;;;;21.40;11.82;;;230.40;2252.80;;;;;;5033713;28;20048;-76
2021/11/29 09:37:45;;;;;;;18.25;10.80;;;205.60;2252.80;;;;;;5031368;28;20116;-76
2021/11/29 09:40:23;;;;;;;16.73;10.57;;;205.50;2252.80;;;;;;5049263;28;20021;-76
2021/11/29 09:42:49;;;;;;;15.45;10.85;;;205.60;2252.80;;;;;;5048170;28;20048;-76
2021/11/29 09:45:16;;;;;;;21.73;12.27;;;205.50;2252.80;;;;;;5030415;28;20053;-76
2021/11/29 09:47:42;;;;;;;19.75;13.35;;;205.60;2252.80;;;;;;5032415;28;20028;-76
2021/11/29 09:50:33;;;;;;;17.08;11.75;;;205.40;2252.80;;;;;;5031596;28;20511;-76
2021/11/29 09:53:05;;;;;;;19.02;10.20;;;205.40;2252.80;;;;;;5031702;28;20506;-76
2021/11/29 09:55:32;;;;;;;14.38;10.00;;;205.30;2252.80;;;;;;5042734;28;20476;-76
2021/11/29 09:58:01;;;;;;;16.52;10.70;;;205.50;2252.80;;;;;;5013232;28;20031;-76
2021/11/29 10:00:31;;;;;;;16.63;11.43;;;205.40;2252.80;;;;;;5032182;28;20025;-76
2021/11/29 10:02:59;;;;;;;22.58;14.05;;;205.60;2252.80;;;;;;5032048;28;20369;-77
2021/11/29 10:05:27;;;;;;;20.23;13.38;;;205.40;2252.80;;;;;;5031004;28;20028;-76
2021/11/29 10:07:55;;;;;;;18.65;12.30;;;205.40;2252.80;;;;;;5044989;28;20499;-76
2021/11/29 10:10:30;;;;;;;24.73;14.23;;;205.30;2252.80;;;;;;5034276;28;20025;-77
2021/11/29 10:13:03;;;;;;;23.85;13.93;;;205.30;2252.80;;;;;;5034427;28;20741;-76
2021/11/29 10:15:35;;;;;;;18.30;13.13;;;205.50;2252.80;;;;;;5045729;28;20042;-76
2021/11/29 10:18:10;;;;;;;22.73;15.07;;;205.40;2252.80;;;;;;5032240;28;20366;-76
2021/11/29 10:20:55;;;;;;;26.05;17.55;;;205.50;2252.80;;;;;;5015915;28;20049;-76
2021/11/29 10:23:37;;;;;;;28.63;18.92;;;205.30;2252.80;;;;;;5030436;28;20087;-76
2021/11/29 10:26:16;;;;;;;21.25;15.48;;;205.30;2252.80;;;;;;5014173;28;20025;-76
2021/11/29 10:28:45;;;;;;;17.25;13.45;;;205.30;2252.80;;;;;;5038527;28;20033;-77
2021/11/29 10:31:11;;;;;;;16.98;12.30;;;205.30;2252.80;;;;;;5033553;28;20028;-76
2021/11/29 10:34:03;;;;;;;20.52;14.57;;;205.40;2252.80;;;;;;5029983;28;20053;-77
2021/11/29 10:36:54;;;;;;;22.10;15.38;;;205.20;2252.80;;;;;;4963676;28;20035;-77
2021/11/29 10:39:26;;;;;;;22.65;15.15;;;205.30;2252.80;;;;;;4970117;28;20094;-76
2021/11/29 10:41:55;;;;;;;19.90;13.48;;;205.20;2252.80;;;;;;4967869;28;20367;-76
2021/11/29 10:44:29;;;;;;;19.50;13.27;;;205.20;2252.80;;;;;;4966794;28;20022;-76
2021/11/29 10:47:00;;;;;;;21.58;14.98;;;205.20;2252.80;;;;;;4972159;28;20070;-76
2021/11/29 10:49:37;;;;;;;20.50;13.90;;;205.10;2252.80;;;;;;4973738;28;20031;-76
2021/11/29 10:52:07;;;;;;;22.10;14.75;;;205.20;2252.80;;;;;;4973733;28;20046;-76
2021/11/29 10:54:57;;;;;;;19.38;12.95;;;205.10;2252.80;;;;;;4974015;28;20034;-76
2021/11/29 10:57:25;;;;;;;21.05;13.90;;;205.10;2252.80;;;;;;4971157;28;20030;-76
2021/11/29 10:59:54;;;;;;;16.85;12.35;;;205.00;2252.80;;;;;;4971573;28;20491;-76
2021/11/29 11:02:27;;;;;;;21.05;14.82;;;205.00;2252.80;;;;;;4974216;28;20034;-75
2021/11/29 11:05:12;;;;;;;16.48;11.40;;;205.00;2252.80;;;;;;4972864;28;20031;-76
2021/11/29 11:07:39;;;;;;;20.77;12.82;;;205.00;2252.80;;;;;;4971100;28;20121;-76
2021/11/29 11:10:09;;;;;;;18.52;13.15;;;205.00;2252.80;;;;;;4971649;28;20023;-76
2021/11/29 11:12:38;;;;;;;26.52;16.60;;;205.00;2252.80;;;;;;4990108;28;20033;-76
2021/11/29 11:15:10;;;;;;;36.38;20.90;;;205.00;2252.80;;;;;;5053181;28;20025;-76
2021/11/29 11:17:36;;;;;;;23.48;14.70;;;204.80;2252.80;;;;;;5054449;28;20049;-76
2021/11/29 11:20:18;;;;;;;18.50;11.65;;;204.80;2252.80;;;;;;5036201;28;20025;-76
2021/11/29 11:23:00;;;;;;;19.73;12.82;;;204.80;2252.80;;;;;;5052961;28;20029;-76
2021/11/29 11:25:35;;;;;;;19.73;12.88;;;204.80;2252.80;;;;;;5055515;28;20021;-76
2021/11/29 11:28:04;;;;;;;19.00;13.60;;;204.90;2252.80;;;;;;5044187;28;20025;-76
2021/11/29 11:30:33;;;;;;;20.83;12.63;;;204.90;2252.80;;;;;;5038110;28;20113;-76
2021/11/29 11:33:02;;;;;;;24.00;14.43;;;205.00;2252.80;;;;;;5036449;28;20126;-76
2021/11/29 11:35:34;;;;;;;21.20;13.88;;;204.90;2252.80;;;;;;5051857;28;20064;-76
2021/11/29 11:38:23;;;;;;;18.65;13.48;;;205.00;2252.80;;;;;;5040230;28;20026;-76
2021/11/29 11:40:51;;;;;;;15.40;11.13;;;205.10;2252.80;;;;;;5045511;28;20068;-76
2021/11/29 11:43:19;;;;;;;21.35;13.48;;;205.10;2252.80;;;;;;5054600;28;20067;-76
2021/11/29 11:45:47;;;;;;;21.65;14.30;;;205.00;2252.80;;;;;;5054836;28;20032;-76
2021/11/29 11:48:17;;;;;;;15.77;11.43;;;205.20;2252.80;;;;;;5054490;28;20132;-76
2021/11/29 11:50:57;;;;;;;15.27;11.18;;;205.50;2252.80;;;;;;5025560;28;20042;-76
2021/11/29 11:53:29;;;;;;;17.08;12.32;;;230.50;2252.80;;;;;;5023541;28;20037;-76
2021/11/29 11:55:55;;;;;;;16.60;12.80;;;230.70;2252.80;;;;;;5016806;28;20048;-76
2021/11/29 11:58:26;;;;;;;14.70;9.60;;;230.70;2252.80;;;;;;5013477;28;20026;-76
2021/11/29 12:01:01;;;;;;;15.35;11.57;;;230.50;2252.80;;;;;;5014642;28;20465;-76
2021/11/29 12:03:32;;;;;;;19.30;11.38;;;230.50;2252.80;;;;;;5028198;28;20485;-76
2021/11/29 12:06:13;;;;;;;14.57;11.07;;;205.70;2252.80;;;;;;5033146;28;20389;-76
2021/11/29 12:08:47;;;;;;;16.48;11.02;;;205.70;2252.80;;;;;;5034213;28;20541;-76